createdAt,value
2023-03-02T00:02:22.311Z,15.37
2023-03-02T00:04:52.641Z,15.15
2023-03-02T00:07:22.550Z,13.98
2023-03-02T00:09:51.890Z,14.95
2023-03-02T00:12:19.599Z,11.88
2023-03-02T00:14:47.319Z,13.83
2023-03-02T00:17:14.967Z,12.68
2023-03-02T00:19:42.651Z,15.27
2023-03-02T00:22:11.204Z,14.77
2023-03-02T00:24:38.958Z,14.70
2023-03-02T00:27:08.024Z,13.73
2023-03-02T00:29:35.671Z,15.25
2023-03-02T00:32:04.830Z,13.77
2023-03-02T00:34:32.937Z,15.50
2023-03-02T00:37:00.586Z,11.40
2023-03-02T00:39:28.301Z,12.18
2023-03-02T00:41:56.076Z,11.63
2023-03-02T00:44:25.144Z,15.23
2023-03-02T00:46:52.857Z,14.10
2023-03-02T00:49:20.750Z,13.15
2023-03-02T00:51:48.422Z,16.23
2023-03-02T00:54:16.143Z,13.27
2023-03-02T00:56:44.403Z,13.07
2023-03-02T00:59:26.280Z,11.33
2023-03-02T01:01:58.173Z,14.85
2023-03-02T01:04:29.789Z,12.80
2023-03-02T01:06:57.985Z,13.93
2023-03-02T01:09:25.966Z,16.53
2023-03-02T01:11:53.948Z,14.15
2023-03-02T01:14:21.691Z,14.23
2023-03-02T01:16:50.619Z,17.00
2023-03-02T01:19:19.697Z,13.25
2023-03-02T01:21:47.658Z,13.80
2023-03-02T01:24:15.348Z,15.88
2023-03-02T01:26:43.047Z,10.88
2023-03-02T01:29:11.634Z,11.57
2023-03-02T01:31:39.657Z,12.45
2023-03-02T01:34:07.383Z,12.40
2023-03-02T01:36:36.519Z,13.37
2023-03-02T01:39:04.696Z,11.97
2023-03-02T01:41:32.746Z,14.20
2023-03-02T01:44:00.552Z,17.23
2023-03-02T01:46:30.701Z,14.15
2023-03-02T01:49:01.850Z,13.55
2023-03-02T01:51:32.019Z,12.40
2023-03-02T01:54:03.734Z,15.20
2023-03-02T01:56:36.377Z,13.07
2023-03-02T01:59:08.277Z,12.70
2023-03-02T02:01:37.639Z,11.65
2023-03-02T02:04:06.048Z,14.43
2023-03-02T02:06:36.563Z,12.43
2023-03-02T02:09:08.281Z,10.25
2023-03-02T02:11:36.163Z,13.38
2023-03-02T02:14:04.207Z,16.25
2023-03-02T02:16:34.208Z,12.50
2023-03-02T02:19:02.494Z,12.77
2023-03-02T02:21:30.226Z,14.73
2023-03-02T02:24:07.772Z,13.68
2023-03-02T02:26:38.898Z,15.00
2023-03-02T02:29:08.106Z,15.38
2023-03-02T02:31:39.190Z,14.45
2023-03-02T02:34:12.496Z,16.90
2023-03-02T02:36:42.736Z,15.18
2023-03-02T02:39:16.427Z,17.95
2023-03-02T02:41:47.450Z,15.65
2023-03-02T02:44:16.362Z,18.35
2023-03-02T02:46:44.787Z,20.03
2023-03-02T02:49:23.195Z,16.42
2023-03-02T02:51:50.914Z,17.67
2023-03-02T02:54:19.816Z,27.40
2023-03-02T02:56:50.037Z,21.67
2023-03-02T02:59:19.374Z,27.03
2023-03-02T03:01:47.963Z,25.38
2023-03-02T03:04:19.365Z,22.08
2023-03-02T03:06:52.755Z,22.93
2023-03-02T03:09:20.707Z,28.60
2023-03-02T03:11:51.805Z,30.25
2023-03-02T03:14:21.476Z,22.97
2023-03-02T03:16:51.106Z,25.52
2023-03-02T03:19:21.444Z,30.30
2023-03-02T03:21:51.165Z,28.60
2023-03-02T03:24:19.114Z,30.63
2023-03-02T03:26:47.031Z,30.75
2023-03-02T03:29:18.595Z,32.65
2023-03-02T03:31:46.596Z,33.85
2023-03-02T03:34:14.291Z,33.70
2023-03-02T03:36:43.344Z,36.28
2023-03-02T03:39:12.093Z,44.33
2023-03-02T03:41:39.931Z,44.28
2023-03-02T03:44:07.765Z,48.25
2023-03-02T03:46:37.149Z,41.78
2023-03-02T03:49:05.548Z,46.20
2023-03-02T03:51:35.289Z,43.40
2023-03-02T03:54:03.300Z,49.53
2023-03-02T03:56:33.458Z,49.70
2023-03-02T03:59:07.389Z,50.30
2023-03-02T04:01:38.780Z,62.92
2023-03-02T04:04:08.880Z,61.03
2023-03-02T04:06:37.269Z,57.03
2023-03-02T04:09:05.748Z,53.05
2023-03-02T04:11:34.426Z,55.78
2023-03-02T04:14:02.473Z,62.78
2023-03-02T04:16:30.729Z,59.08
2023-03-02T04:19:00.537Z,61.70
2023-03-02T04:21:28.558Z,59.58
2023-03-02T04:23:56.610Z,65.93
2023-03-02T04:26:26.220Z,63.10
2023-03-02T04:28:53.919Z,72.07
2023-03-02T04:31:21.862Z,62.43
2023-03-02T04:33:49.617Z,59.13
2023-03-02T04:36:19.607Z,72.68
2023-03-02T04:38:47.402Z,64.35
2023-03-02T04:41:15.117Z,60.27
2023-03-02T04:43:42.909Z,64.00
2023-03-02T04:46:11.352Z,64.53
2023-03-02T04:48:39.102Z,65.70
2023-03-02T04:51:07.083Z,63.30
2023-03-02T04:53:36.198Z,66.77
2023-03-02T04:56:04.018Z,60.70
2023-03-02T04:58:32.128Z,73.80
2023-03-02T05:01:02.277Z,71.57
2023-03-02T05:03:30.163Z,71.38
2023-03-02T05:05:57.960Z,75.75
2023-03-02T05:08:25.628Z,62.13
2023-03-02T05:10:54.694Z,70.50
2023-03-02T05:13:22.537Z,69.22
2023-03-02T05:15:51.688Z,65.80
2023-03-02T05:18:20.005Z,72.55
2023-03-02T05:20:48.023Z,70.25
2023-03-02T05:23:25.261Z,70.28
2023-03-02T05:25:56.571Z,66.18
2023-03-02T05:28:26.002Z,72.47
2023-03-02T05:30:53.999Z,67.53
2023-03-02T05:33:22.281Z,67.53
2023-03-02T05:35:50.019Z,70.88
2023-03-02T05:38:18.183Z,70.32
2023-03-02T05:40:46.045Z,65.65
2023-03-02T05:43:18.640Z,68.78
2023-03-02T05:45:46.329Z,73.13
2023-03-02T05:48:14.621Z,68.10
2023-03-02T05:50:43.165Z,69.88
2023-03-02T05:53:10.884Z,68.28
2023-03-02T05:55:38.609Z,65.78
2023-03-02T05:58:07.487Z,67.67
2023-03-02T06:00:36.648Z,65.95
2023-03-02T06:03:04.454Z,62.05
2023-03-02T06:05:32.281Z,65.18
2023-03-02T06:08:00.014Z,65.72
2023-03-02T06:10:28.264Z,63.55
2023-03-02T06:12:56.716Z,58.67
2023-03-02T06:15:24.668Z,56.78
2023-03-02T06:17:53.739Z,62.37
2023-03-02T06:20:21.945Z,58.83
2023-03-02T06:22:49.831Z,59.47
2023-03-02T06:25:20.616Z,61.50
2023-03-02T06:27:51.044Z,60.67
2023-03-02T06:30:22.657Z,62.58
2023-03-02T06:32:50.824Z,63.47
2023-03-02T06:35:20.259Z,66.50
2023-03-02T06:37:48.091Z,75.60
2023-03-02T06:40:15.896Z,64.32
2023-03-02T06:42:43.924Z,69.97
2023-03-02T06:45:12.288Z,67.07
2023-03-02T06:47:40.028Z,64.93
2023-03-02T06:50:08.730Z,66.45
2023-03-02T06:52:37.844Z,60.37
2023-03-02T06:55:06.441Z,67.20
2023-03-02T06:57:34.701Z,64.30
2023-03-02T07:00:06.184Z,63.78
2023-03-02T07:02:34.391Z,64.60
2023-03-02T07:05:02.060Z,69.77
2023-03-02T07:07:29.706Z,62.88
2023-03-02T07:09:58.769Z,64.22
2023-03-02T07:12:26.521Z,62.17
2023-03-02T07:14:54.169Z,62.08
2023-03-02T07:17:21.873Z,65.43
2023-03-02T07:19:49.594Z,62.53
2023-03-02T07:22:17.234Z,65.43
2023-03-02T07:24:45.115Z,61.25
2023-03-02T07:27:14.177Z,62.78
2023-03-02T07:29:41.804Z,63.40
2023-03-02T07:32:12.323Z,63.90
2023-03-02T07:34:40.361Z,59.00
2023-03-02T07:37:08.083Z,64.80
2023-03-02T07:39:35.777Z,63.65
2023-03-02T07:42:04.502Z,62.20
2023-03-02T07:44:33.607Z,64.15
2023-03-02T07:47:01.432Z,64.30
2023-03-02T07:49:29.097Z,61.03
2023-03-02T07:51:56.809Z,65.47
2023-03-02T07:54:26.472Z,61.55
2023-03-02T07:56:54.191Z,56.20
2023-03-02T07:59:21.824Z,55.10
2023-03-02T08:01:50.947Z,56.75
2023-03-02T08:04:18.638Z,57.17
2023-03-02T08:06:46.350Z,58.05
2023-03-02T08:09:16.475Z,57.72
2023-03-02T08:11:44.917Z,60.85
2023-03-02T08:14:12.664Z,52.67
2023-03-02T08:16:40.804Z,57.83
2023-03-02T08:19:10.537Z,53.28
2023-03-02T08:21:38.233Z,57.63
2023-03-02T08:24:06.140Z,58.58
2023-03-02T08:26:33.831Z,58.22
2023-03-02T08:29:01.628Z,58.75
2023-03-02T08:31:29.730Z,53.72
2023-03-02T08:33:59.448Z,50.97
2023-03-02T08:36:28.514Z,53.72
2023-03-02T08:38:56.216Z,55.45
2023-03-02T08:41:24.997Z,53.38
2023-03-02T08:43:54.351Z,49.35
2023-03-02T08:46:22.533Z,48.72
2023-03-02T08:48:51.332Z,47.63
2023-03-02T08:51:21.323Z,48.33
2023-03-02T08:53:52.102Z,47.08
2023-03-02T08:56:21.169Z,44.92
2023-03-02T08:58:49.205Z,47.38
2023-03-02T09:01:19.569Z,47.13
2023-03-02T09:03:47.341Z,41.83
2023-03-02T09:06:15.552Z,40.78
2023-03-02T09:08:43.880Z,42.75
2023-03-02T09:11:12.958Z,42.33
2023-03-02T09:13:40.684Z,38.13
2023-03-02T09:16:09.492Z,44.00
2023-03-02T09:18:37.413Z,40.17
2023-03-02T09:21:05.491Z,42.03
2023-03-02T09:23:34.015Z,40.42
2023-03-02T09:26:01.823Z,41.83
2023-03-02T09:28:31.116Z,38.35
2023-03-02T09:31:01.024Z,44.67
2023-03-02T09:33:29.250Z,38.45
2023-03-02T09:35:56.987Z,36.00
2023-03-02T09:38:24.960Z,35.95
2023-03-02T09:41:08.695Z,39.47
2023-03-02T09:43:45.050Z,33.35
2023-03-02T09:46:17.372Z,36.88
2023-03-02T09:48:50.720Z,33.25
2023-03-02T09:51:32.480Z,38.83
2023-03-02T09:54:05.267Z,34.40
2023-03-02T09:56:35.690Z,36.25
2023-03-02T09:59:09.394Z,32.78
2023-03-02T10:01:40.848Z,31.53
2023-03-02T10:04:16.451Z,31.83
2023-03-02T10:06:44.251Z,36.35
2023-03-02T10:09:11.986Z,34.95
2023-03-02T10:11:47.984Z,31.45
2023-03-02T10:14:22.352Z,28.10
2023-03-02T10:16:54.981Z,37.30
2023-03-02T10:19:25.186Z,33.03
2023-03-02T10:21:55.642Z,36.08
2023-03-02T10:24:29.435Z,31.20
2023-03-02T10:27:00.528Z,27.53
2023-03-02T10:29:41.113Z,32.45
2023-03-02T10:32:16.289Z,29.77
2023-03-02T10:34:43.980Z,26.25
2023-03-02T10:37:14.488Z,26.08
2023-03-02T10:39:42.225Z,28.50
2023-03-02T10:42:15.446Z,26.98
2023-03-02T10:44:47.631Z,26.45
2023-03-02T10:47:23.735Z,28.35
2023-03-02T10:49:52.132Z,27.13
2023-03-02T10:52:21.234Z,24.77
2023-03-02T10:54:49.186Z,25.17
2023-03-02T10:57:31.104Z,24.58
2023-03-02T11:00:02.489Z,28.73
2023-03-02T11:02:31.032Z,29.77
2023-03-02T11:05:00.391Z,29.60
2023-03-02T11:07:30.215Z,28.80
2023-03-02T11:09:59.844Z,24.97
2023-03-02T11:12:27.708Z,28.98
2023-03-02T11:15:17.761Z,26.88
2023-03-02T11:17:46.690Z,22.27
2023-03-02T11:20:18.288Z,21.42
2023-03-02T11:22:49.234Z,21.67
2023-03-02T11:25:24.834Z,20.77
2023-03-02T11:27:55.871Z,17.00
2023-03-02T11:30:27.116Z,18.35
2023-03-02T11:32:59.175Z,19.75
2023-03-02T11:35:33.209Z,25.35
2023-03-02T11:38:05.701Z,24.02
2023-03-02T11:40:37.172Z,22.45
2023-03-02T11:43:05.651Z,24.80
2023-03-02T11:45:38.230Z,29.30
2023-03-02T11:48:08.247Z,24.75
2023-03-02T11:50:38.766Z,24.10
2023-03-02T11:53:11.370Z,24.50
2023-03-02T11:55:44.740Z,25.20
2023-03-02T11:58:15.593Z,23.98
2023-03-02T12:00:45.510Z,26.15
2023-03-02T12:03:22.351Z,26.98
2023-03-02T12:06:01.639Z,26.73
2023-03-02T12:08:36.823Z,25.58
2023-03-02T12:11:07.263Z,22.63
2023-03-02T12:13:36.515Z,25.83
2023-03-02T12:16:18.290Z,25.50
2023-03-02T12:18:48.851Z,26.23
2023-03-02T12:21:18.893Z,25.60
2023-03-02T12:23:59.476Z,25.57
2023-03-02T12:26:32.425Z,26.15
2023-03-02T12:29:03.500Z,27.27
2023-03-02T12:31:44.154Z,26.80
2023-03-02T12:34:35.190Z,24.63
2023-03-02T12:37:07.646Z,31.03
2023-03-02T12:39:49.317Z,27.27
2023-03-02T12:42:35.749Z,25.55
2023-03-02T12:45:06.004Z,24.35
2023-03-02T12:47:35.173Z,23.90
2023-03-02T12:50:05.854Z,24.38
2023-03-02T12:52:36.110Z,22.42
2023-03-02T12:55:07.088Z,23.90
2023-03-02T12:57:35.282Z,23.17
2023-03-02T13:00:06.592Z,28.10
2023-03-02T13:02:37.183Z,22.27
2023-03-02T13:05:07.711Z,19.92
2023-03-02T13:07:38.256Z,22.92
2023-03-02T13:10:13.800Z,19.55
2023-03-02T13:12:45.849Z,20.53
2023-03-02T13:15:17.028Z,23.55
2023-03-02T13:17:47.313Z,25.30
2023-03-02T13:20:15.768Z,28.23
2023-03-02T13:22:43.569Z,23.10
2023-03-02T13:25:23.345Z,23.55
2023-03-02T13:27:55.540Z,21.25
2023-03-02T13:30:27.172Z,19.40
2023-03-02T13:33:01.668Z,21.85
2023-03-02T13:35:31.506Z,22.47
2023-03-02T13:38:02.467Z,19.33
2023-03-02T13:40:39.070Z,20.60
2023-03-02T13:43:20.917Z,18.30
2023-03-02T13:45:53.762Z,18.40
2023-03-02T13:48:23.275Z,19.20
2023-03-02T13:50:53.892Z,20.00
2023-03-02T13:53:21.871Z,19.10
2023-03-02T13:55:50.030Z,18.50
2023-03-02T13:58:19.606Z,17.58
2023-03-02T14:00:47.343Z,18.67
2023-03-02T14:03:24.942Z,18.23
2023-03-02T14:05:53.201Z,19.25
2023-03-02T14:08:21.167Z,16.13
2023-03-02T14:10:49.336Z,15.38
2023-03-02T14:13:19.175Z,18.75
2023-03-02T14:15:49.402Z,19.58
2023-03-02T14:18:34.513Z,16.33
2023-03-02T14:21:02.489Z,16.88
2023-03-02T14:23:30.242Z,16.75
2023-03-02T14:25:58.108Z,18.83
2023-03-02T14:28:28.446Z,19.43
2023-03-02T14:30:58.153Z,21.20
2023-03-02T14:33:26.580Z,21.55
2023-03-02T14:35:57.954Z,19.42
2023-03-02T14:38:27.769Z,20.42
2023-03-02T14:40:55.541Z,18.92
2023-03-02T14:43:23.964Z,19.95
2023-03-02T14:45:53.175Z,18.40
2023-03-02T14:48:20.910Z,18.87
2023-03-02T14:50:49.867Z,18.30
2023-03-02T14:53:20.881Z,19.23
2023-03-02T14:55:48.770Z,16.50
2023-03-02T14:58:18.865Z,18.55
2023-03-02T15:00:47.342Z,20.77
2023-03-02T15:03:16.356Z,18.95
2023-03-02T15:05:58.976Z,19.15
2023-03-02T15:08:30.409Z,18.70
2023-03-02T15:10:58.192Z,22.02
2023-03-02T15:13:25.832Z,21.73
2023-03-02T15:15:53.745Z,18.85
2023-03-02T15:18:21.446Z,16.55
2023-03-02T15:20:49.090Z,19.52
2023-03-02T15:23:16.717Z,18.13
2023-03-02T15:25:45.730Z,17.85
2023-03-02T15:28:13.486Z,15.68
2023-03-02T15:30:41.738Z,16.25
2023-03-02T15:33:09.682Z,22.10
2023-03-02T15:35:39.786Z,20.17
2023-03-02T15:38:07.893Z,20.92
2023-03-02T15:40:36.847Z,19.98
2023-03-02T15:43:05.918Z,21.00
2023-03-02T15:45:33.637Z,20.70
2023-03-02T15:48:01.303Z,21.23
2023-03-02T15:50:28.931Z,18.70
2023-03-02T15:52:57.509Z,20.90
2023-03-02T15:55:25.240Z,20.27
2023-03-02T15:57:53.605Z,19.10
2023-03-02T16:00:23.508Z,19.70
2023-03-02T16:02:51.342Z,22.67
2023-03-02T16:05:19.056Z,24.13
2023-03-02T16:07:46.709Z,23.58
2023-03-02T16:10:16.469Z,22.63
2023-03-02T16:12:44.552Z,22.95
2023-03-02T16:15:12.562Z,25.55
2023-03-02T16:17:43.122Z,26.45
2023-03-02T16:20:12.270Z,27.60
2023-03-02T16:22:39.928Z,22.88
2023-03-02T16:25:08.157Z,25.50
2023-03-02T16:27:35.805Z,30.80
2023-03-02T16:30:03.578Z,25.45
2023-03-02T16:32:33.105Z,30.73
2023-03-02T16:35:02.208Z,23.23
2023-03-02T16:37:29.889Z,26.25
2023-03-02T16:39:57.548Z,26.17
2023-03-02T16:42:25.261Z,29.60
2023-03-02T16:44:53.550Z,26.57
2023-03-02T16:47:21.890Z,27.13
2023-03-02T16:49:49.509Z,29.63
2023-03-02T16:52:18.592Z,28.50
2023-03-02T16:54:46.275Z,27.73
2023-03-02T16:57:13.924Z,29.43
2023-03-02T16:59:41.733Z,33.78
2023-03-02T17:02:10.991Z,29.38
2023-03-02T17:04:38.669Z,28.80
2023-03-02T17:07:06.722Z,28.17
2023-03-02T17:09:37.406Z,27.73
2023-03-02T17:12:05.803Z,30.83
2023-03-02T17:14:33.866Z,29.27
2023-03-02T17:17:04.433Z,30.27
2023-03-02T17:19:32.071Z,30.02
2023-03-02T17:22:00.733Z,33.47
2023-03-02T17:24:29.042Z,31.45
2023-03-02T17:26:58.292Z,39.22
2023-03-02T17:29:26.789Z,41.80
2023-03-02T17:31:54.586Z,45.60
2023-03-02T17:34:22.337Z,40.70
2023-03-02T17:36:50.080Z,44.58
2023-03-02T17:39:17.730Z,45.70
2023-03-02T17:41:45.367Z,51.25
2023-03-02T17:44:14.465Z,44.63
2023-03-02T17:46:43.797Z,49.33
2023-03-02T17:49:11.415Z,46.92
2023-03-02T17:51:39.110Z,52.60
2023-03-02T17:54:07.016Z,56.95
2023-03-02T17:56:34.666Z,58.20
2023-03-02T17:59:05.077Z,61.50
2023-03-02T18:01:34.869Z,63.85
2023-03-02T18:04:02.543Z,65.45
2023-03-02T18:06:30.243Z,64.23
2023-03-02T18:08:57.866Z,60.10
2023-03-02T18:11:26.867Z,58.00
2023-03-02T18:13:55.891Z,61.78
2023-03-02T18:16:24.092Z,60.47
2023-03-02T18:18:54.118Z,55.25
2023-03-02T18:21:22.660Z,61.22
2023-03-02T18:23:50.366Z,61.97
2023-03-02T18:26:18.329Z,69.20
2023-03-02T18:28:45.982Z,60.83
2023-03-02T18:31:15.716Z,65.87
2023-03-02T18:33:43.442Z,66.65
2023-03-02T18:36:12.580Z,72.90
2023-03-02T18:38:40.217Z,69.00
2023-03-02T18:41:09.311Z,77.45
2023-03-02T18:43:40.489Z,66.30
2023-03-02T18:46:10.412Z,78.15
2023-03-02T18:48:39.557Z,77.40
2023-03-02T18:54:36.725Z,76.70
2023-03-02T18:57:07.270Z,72.95
2023-03-02T18:59:35.748Z,69.20
2023-03-02T19:02:05.566Z,75.93
2023-03-02T19:04:33.250Z,77.22
2023-03-02T19:07:02.872Z,67.77
2023-03-02T19:09:30.610Z,76.82
2023-03-02T19:12:00.044Z,71.72
2023-03-02T19:14:27.898Z,68.97
2023-03-02T19:16:55.509Z,77.63
2023-03-02T19:19:23.342Z,70.70
2023-03-02T19:21:51.114Z,65.05
2023-03-02T19:24:18.951Z,67.22
2023-03-02T19:26:46.927Z,67.00
2023-03-02T19:29:16.223Z,68.93
2023-03-02T19:31:43.908Z,58.47
2023-03-02T19:34:14.657Z,72.17
2023-03-02T19:36:45.608Z,61.22
2023-03-02T19:39:13.698Z,67.38
2023-03-02T19:41:41.615Z,60.33
2023-03-02T19:44:09.779Z,60.03
2023-03-02T19:46:38.844Z,60.40
2023-03-02T19:49:06.698Z,62.37
2023-03-02T19:51:34.296Z,58.00
2023-03-02T19:54:04.046Z,65.00
2023-03-02T19:56:34.961Z,57.80
2023-03-02T19:59:03.261Z,61.13
2023-03-02T20:01:31.509Z,56.78
2023-03-02T20:04:01.319Z,58.60
2023-03-02T20:06:32.123Z,58.22
2023-03-02T20:09:01.144Z,58.63
2023-03-02T20:11:30.786Z,58.53
2023-03-02T20:14:02.236Z,64.60
2023-03-02T20:16:30.608Z,65.75
2023-03-02T20:19:00.784Z,66.53
2023-03-02T20:21:28.473Z,63.93
2023-03-02T20:23:56.211Z,64.93
2023-03-02T20:26:27.515Z,60.40
2023-03-02T20:28:57.805Z,64.13
2023-03-02T20:31:25.708Z,64.85
2023-03-02T20:33:55.774Z,67.30
2023-03-02T20:36:27.279Z,67.87
2023-03-02T20:38:58.482Z,62.63
2023-03-02T20:41:26.320Z,60.85
2023-03-02T20:43:54.111Z,59.13
2023-03-02T20:46:24.841Z,59.70
2023-03-02T20:48:53.076Z,59.55
2023-03-02T20:51:21.493Z,55.95
2023-03-02T20:53:51.023Z,54.92
2023-03-02T20:56:19.212Z,60.90
2023-03-02T20:58:47.364Z,59.45
2023-03-02T21:01:16.668Z,56.40
2023-03-02T21:03:45.086Z,53.67
2023-03-02T21:06:13.948Z,56.95
2023-03-02T21:08:42.140Z,59.10
2023-03-02T21:11:13.542Z,63.13
2023-03-02T21:13:41.934Z,56.53
2023-03-02T21:16:09.924Z,55.97
2023-03-02T21:18:37.593Z,60.50
2023-03-02T21:21:05.654Z,59.08
2023-03-02T21:23:33.326Z,51.47
2023-03-02T21:26:00.969Z,55.42
2023-03-02T21:28:30.049Z,52.75
2023-03-02T21:30:57.730Z,54.42
2023-03-02T21:33:25.746Z,56.10
2023-03-02T21:35:53.372Z,53.45
2023-03-02T21:38:21.044Z,60.22
2023-03-02T21:40:48.657Z,58.08
2023-03-02T21:43:16.848Z,56.88
2023-03-02T21:45:45.922Z,57.60
2023-03-02T21:48:14.160Z,57.80
2023-03-02T21:50:42.206Z,56.92
2023-03-02T21:53:10.289Z,59.20
2023-03-02T21:55:38.080Z,48.75
2023-03-02T21:58:06.173Z,51.30
2023-03-02T22:00:37.002Z,54.50
2023-03-02T22:03:06.788Z,55.88
2023-03-02T22:05:35.030Z,52.30
2023-03-02T22:08:02.656Z,59.45
2023-03-02T22:10:33.136Z,56.37
2023-03-02T22:13:14.592Z,59.97
2023-03-02T22:15:42.565Z,63.30
2023-03-02T22:18:12.682Z,57.40
2023-03-02T22:20:41.644Z,59.50
2023-03-02T22:23:12.737Z,61.53
2023-03-02T22:25:40.900Z,65.63
2023-03-02T22:28:16.440Z,66.55
2023-03-02T22:30:44.236Z,65.88
2023-03-02T22:33:19.920Z,60.10
2023-03-02T22:35:48.197Z,69.35
2023-03-02T22:38:21.371Z,59.28
2023-03-02T22:40:49.020Z,63.63
2023-03-02T22:43:21.888Z,70.05
2023-03-02T22:45:49.704Z,68.00
2023-03-02T22:48:20.784Z,61.45
2023-03-02T22:50:51.376Z,62.65
2023-03-02T22:53:25.082Z,61.17
2023-03-02T22:55:56.840Z,66.38
2023-03-02T22:58:33.751Z,62.70
2023-03-02T23:01:02.823Z,63.63
2023-03-02T23:03:38.373Z,57.28
2023-03-02T23:06:18.447Z,58.47
2023-03-02T23:08:46.199Z,59.67
2023-03-02T23:11:16.845Z,70.57
2023-03-02T23:13:44.703Z,63.28
2023-03-02T23:16:20.896Z,65.97
2023-03-02T23:18:50.089Z,65.17
2023-03-02T23:21:23.592Z,60.30
2023-03-02T23:23:51.892Z,64.30
2023-03-02T23:26:20.247Z,60.40
2023-03-02T23:28:48.975Z,63.90
2023-03-02T23:31:18.397Z,67.43
2023-03-02T23:33:46.653Z,67.35
2023-03-02T23:36:16.389Z,68.95
2023-03-02T23:38:44.180Z,66.55
2023-03-02T23:41:11.845Z,69.60
2023-03-02T23:43:39.611Z,69.55
2023-03-02T23:46:07.629Z,63.08
2023-03-02T23:48:35.412Z,64.50
2023-03-02T23:51:03.173Z,70.88
2023-03-02T23:53:32.302Z,68.85
2023-03-02T23:56:00.307Z,75.38
2023-03-02T23:58:28.010Z,68.10
